createdAt,value
2023-04-06T00:01:19.548Z,99.90
2023-04-06T00:03:50.256Z,99.90
2023-04-06T00:06:21.360Z,99.90
2023-04-06T00:08:52.127Z,99.90
2023-04-06T00:11:22.879Z,99.90
2023-04-06T00:13:53.684Z,99.90
2023-04-06T00:16:25.149Z,99.90
2023-04-06T00:18:56.647Z,99.90
2023-04-06T00:21:28.026Z,99.90
2023-04-06T00:23:59.227Z,99.90
2023-04-06T00:26:30.249Z,99.90
2023-04-06T00:29:01.534Z,99.90
2023-04-06T00:31:34.612Z,99.90
2023-04-06T00:34:05.849Z,99.90
2023-04-06T00:36:37.087Z,99.90
2023-04-06T00:39:08.497Z,99.90
2023-04-06T00:41:39.921Z,99.90
2023-04-06T00:44:11.470Z,99.90
2023-04-06T00:46:42.260Z,99.90
2023-04-06T00:49:13.357Z,99.90
2023-04-06T00:51:44.613Z,99.90
2023-04-06T00:54:15.796Z,99.90
2023-04-06T00:56:46.891Z,99.90
2023-04-06T00:59:18.053Z,99.90
2023-04-06T01:01:50.226Z,99.90
2023-04-06T01:04:23.170Z,99.90
2023-04-06T01:06:54.432Z,99.90
2023-04-06T01:09:26.014Z,99.90
2023-04-06T01:11:58.029Z,99.90
2023-04-06T01:14:29.318Z,99.90
2023-04-06T01:17:02.480Z,99.90
2023-04-06T01:19:33.647Z,99.90
2023-04-06T01:22:04.836Z,99.90
2023-04-06T01:24:36.105Z,99.90
2023-04-06T01:27:07.484Z,99.90
2023-04-06T01:29:38.471Z,99.90
2023-04-06T01:32:10.675Z,99.90
2023-04-06T01:34:41.748Z,99.90
2023-04-06T01:37:12.921Z,99.90
2023-04-06T01:39:44.544Z,99.90
2023-04-06T01:42:15.702Z,99.90
2023-04-06T01:44:46.907Z,99.90
2023-04-06T01:47:18.062Z,99.90
2023-04-06T01:49:49.144Z,99.90
2023-04-06T01:52:20.143Z,99.90
2023-04-06T01:54:51.271Z,99.90
2023-04-06T01:57:22.476Z,99.90
2023-04-06T01:59:53.489Z,99.90
2023-04-06T02:02:24.865Z,99.90
2023-04-06T02:04:56.064Z,99.90
2023-04-06T02:07:27.213Z,99.90
2023-04-06T02:09:59.119Z,99.90
2023-04-06T02:12:32.467Z,99.90
2023-04-06T02:15:03.735Z,99.90
2023-04-06T02:17:34.932Z,99.90
2023-04-06T02:20:06.862Z,99.90
2023-04-06T02:22:38.379Z,99.90
2023-04-06T02:25:10.788Z,99.90
2023-04-06T02:27:41.488Z,99.90
2023-04-06T02:30:14.430Z,99.90
2023-04-06T02:32:45.191Z,99.90
2023-04-06T02:35:16.195Z,99.90
2023-04-06T02:37:47.245Z,99.90
2023-04-06T02:40:18.952Z,99.90
2023-04-06T02:42:50.241Z,99.90
2023-04-06T02:45:21.532Z,99.90
2023-04-06T02:47:52.763Z,99.90
2023-04-06T02:50:24.019Z,99.90
2023-04-06T02:52:56.123Z,99.90
2023-04-06T02:55:27.316Z,99.90
2023-04-06T02:57:58.342Z,99.90
2023-04-06T03:00:29.532Z,99.90
2023-04-06T03:03:00.795Z,99.90
2023-04-06T03:05:31.972Z,99.90
2023-04-06T03:08:03.034Z,99.90
2023-04-06T03:10:34.401Z,99.90
2023-04-06T03:13:05.124Z,99.90
2023-04-06T03:15:36.022Z,99.90
2023-04-06T03:18:07.052Z,99.90
2023-04-06T03:20:37.915Z,99.90
2023-04-06T03:23:08.724Z,99.90
2023-04-06T03:25:40.780Z,99.90
2023-04-06T03:28:11.652Z,99.90
2023-04-06T03:30:42.481Z,99.90
2023-04-06T03:33:13.135Z,99.90
2023-04-06T03:35:43.868Z,99.90
2023-04-06T03:38:14.605Z,99.90
2023-04-06T03:40:45.395Z,99.90
2023-04-06T03:43:16.446Z,99.90
2023-04-06T03:45:47.115Z,99.90
2023-04-06T03:48:17.802Z,99.90
2023-04-06T03:50:48.513Z,99.90
2023-04-06T03:53:19.215Z,99.90
2023-04-06T03:55:50.256Z,99.90
2023-04-06T03:58:21.102Z,99.90
2023-04-06T04:00:51.940Z,99.90
2023-04-06T04:03:24.855Z,99.90
2023-04-06T04:05:56.297Z,99.90
2023-04-06T04:08:27.384Z,99.90
2023-04-06T04:10:58.338Z,99.90
2023-04-06T04:13:29.272Z,99.90
2023-04-06T04:16:00.231Z,99.90
2023-04-06T04:18:31.297Z,99.90
2023-04-06T04:21:02.294Z,99.90
2023-04-06T04:23:33.245Z,99.90
2023-04-06T04:26:04.312Z,99.90
2023-04-06T04:28:35.163Z,99.90
2023-04-06T04:31:06.033Z,99.90
2023-04-06T04:33:36.823Z,99.90
2023-04-06T04:36:08.984Z,99.90
2023-04-06T04:38:39.743Z,99.90
2023-04-06T04:41:11.516Z,99.90
2023-04-06T04:43:42.156Z,99.90
2023-04-06T04:46:12.980Z,99.90
2023-04-06T04:48:43.797Z,99.90
2023-04-06T04:51:14.507Z,99.90
2023-04-06T04:53:45.588Z,99.90
2023-04-06T04:56:16.372Z,99.90
2023-04-06T04:58:47.270Z,99.90
2023-04-06T05:01:18.306Z,99.90
2023-04-06T05:03:49.204Z,99.90
2023-04-06T05:06:21.017Z,99.90
2023-04-06T05:08:51.789Z,99.90
2023-04-06T05:11:23.261Z,99.90
2023-04-06T05:13:54.041Z,99.90
2023-04-06T05:16:24.776Z,99.90
2023-04-06T05:18:57.338Z,99.90
2023-04-06T05:21:29.343Z,99.90
2023-04-06T05:24:00.264Z,99.90
2023-04-06T05:29:08.044Z,99.90
2023-04-06T05:31:39.144Z,99.90
2023-04-06T05:34:10.656Z,99.90
2023-04-06T05:36:42.387Z,99.90
2023-04-06T05:39:13.973Z,99.90
2023-04-06T05:41:44.648Z,99.90
2023-04-06T05:44:15.375Z,99.90
2023-04-06T05:46:46.176Z,99.90
2023-04-06T05:49:16.987Z,99.90
2023-04-06T05:51:47.721Z,99.90
2023-04-06T05:54:18.568Z,99.90
2023-04-06T05:56:49.399Z,99.90
2023-04-06T05:59:20.222Z,99.90
2023-04-06T06:01:51.265Z,99.90
2023-04-06T06:04:22.046Z,99.90
2023-04-06T06:09:30.275Z,99.90
2023-04-06T06:12:02.193Z,99.90
2023-04-06T06:14:33.079Z,99.90
2023-04-06T06:17:04.625Z,99.90
2023-04-06T06:19:35.695Z,99.90
2023-04-06T06:22:07.807Z,99.90
2023-04-06T06:24:38.876Z,99.90
2023-04-06T06:27:09.829Z,99.90
2023-04-06T06:29:40.689Z,99.90
2023-04-06T06:32:11.756Z,99.90
2023-04-06T06:34:42.518Z,99.90
2023-04-06T06:37:13.228Z,99.90
2023-04-06T06:39:44.384Z,99.90
2023-04-06T06:42:15.368Z,99.90
2023-04-06T06:44:46.184Z,99.90
2023-04-06T06:47:17.000Z,99.90
2023-04-06T06:49:47.743Z,99.90
2023-04-06T06:52:18.591Z,99.90
2023-04-06T06:54:49.478Z,99.90
2023-04-06T06:57:20.270Z,99.90
2023-04-06T06:59:51.454Z,99.90
2023-04-06T07:02:22.480Z,99.90
2023-04-06T07:04:53.531Z,99.90
2023-04-06T07:07:24.537Z,99.90
2023-04-06T07:09:55.432Z,99.90
2023-04-06T07:12:26.399Z,99.90
2023-04-06T07:14:57.428Z,99.90
2023-04-06T07:17:28.269Z,99.90
2023-04-06T07:19:59.178Z,99.90
2023-04-06T07:22:29.880Z,99.90
2023-04-06T07:25:00.644Z,99.90
2023-04-06T07:27:31.540Z,99.90
2023-04-06T07:30:02.376Z,99.90
2023-04-06T07:32:33.207Z,99.90
2023-04-06T07:35:04.051Z,99.90
2023-04-06T07:37:34.832Z,99.90
2023-04-06T07:40:06.466Z,99.90
2023-04-06T07:42:36.445Z,99.90
2023-04-06T07:45:09.311Z,99.90
2023-04-06T07:47:40.039Z,99.90
2023-04-06T07:50:13.026Z,99.90
2023-04-06T07:52:44.070Z,99.90
2023-04-06T07:55:14.954Z,99.90
2023-04-06T07:57:45.667Z,99.90
2023-04-06T08:00:18.262Z,99.90
2023-04-06T08:02:49.182Z,99.90
2023-04-06T08:05:20.534Z,99.90
2023-04-06T08:07:51.379Z,99.90
2023-04-06T08:10:22.562Z,99.90
2023-04-06T08:12:53.251Z,99.90
2023-04-06T08:15:24.256Z,99.90
2023-04-06T08:17:56.689Z,99.90
2023-04-06T08:20:27.657Z,99.90
2023-04-06T08:22:58.464Z,99.90
2023-04-06T08:25:29.216Z,99.90
2023-04-06T08:27:59.935Z,99.90
2023-04-06T08:30:31.112Z,99.90
2023-04-06T08:33:01.908Z,99.90
2023-04-06T08:35:32.620Z,99.90
2023-04-06T08:38:03.735Z,99.90
2023-04-06T08:40:39.316Z,99.90
2023-04-06T08:43:13.418Z,99.90
2023-04-06T08:45:45.201Z,99.90
2023-04-06T08:48:17.660Z,99.90
2023-04-06T08:50:48.736Z,99.90
2023-04-06T08:53:22.886Z,99.90
2023-04-06T08:55:53.154Z,99.90
2023-04-06T08:58:37.247Z,99.90
2023-04-06T09:00:58.455Z,99.90
2023-04-06T09:03:31.040Z,99.90
2023-04-06T09:06:02.528Z,99.90
2023-04-06T09:08:33.666Z,99.90
2023-04-06T09:11:06.223Z,99.90
2023-04-06T09:13:48.152Z,99.90
2023-04-06T09:16:19.819Z,99.90
2023-04-06T09:18:51.864Z,99.90
2023-04-06T09:21:25.508Z,99.90
2023-04-06T09:24:03.397Z,99.90
2023-04-06T09:26:36.091Z,99.90
2023-04-06T09:29:07.481Z,99.90
2023-04-06T09:31:38.446Z,99.90
2023-04-06T09:34:09.556Z,99.90
2023-04-06T09:36:41.943Z,99.90
2023-04-06T09:39:12.926Z,99.90
2023-04-06T09:41:45.145Z,99.90
2023-04-06T09:44:16.877Z,99.90
2023-04-06T09:46:58.714Z,99.90
2023-04-06T09:49:22.401Z,99.90
2023-04-06T09:51:56.701Z,99.90
2023-04-06T09:54:30.537Z,99.90
2023-04-06T09:57:06.225Z,99.90
2023-04-06T09:59:42.738Z,99.90
2023-04-06T10:02:16.884Z,99.90
2023-04-06T10:04:51.476Z,99.90
2023-04-06T10:10:04.622Z,99.90
2023-04-06T10:12:35.912Z,99.90
2023-04-06T10:15:08.214Z,99.90
2023-04-06T10:17:39.462Z,99.90
2023-04-06T10:20:15.706Z,99.90
2023-04-06T10:22:51.211Z,99.90
2023-04-06T10:25:29.949Z,99.90
2023-04-06T10:28:05.894Z,99.90
2023-04-06T10:30:37.812Z,99.90
2023-04-06T10:33:17.560Z,99.90
2023-04-06T10:35:48.956Z,99.90
2023-04-06T10:38:21.910Z,99.90
2023-04-06T10:40:52.934Z,99.90
2023-04-06T10:43:25.001Z,99.90
2023-04-06T10:46:01.398Z,99.90
2023-04-06T10:48:42.458Z,99.90
2023-04-06T10:51:15.709Z,99.90
2023-04-06T10:53:49.587Z,99.90
2023-04-06T10:56:22.717Z,99.90
2023-04-06T10:58:57.150Z,99.70
2023-04-06T11:01:29.071Z,99.10
2023-04-06T11:04:01.217Z,98.50
2023-04-06T11:06:33.862Z,99.90
2023-04-06T11:09:04.903Z,99.90
2023-04-06T11:11:35.671Z,97.50
2023-04-06T11:14:06.851Z,97.50
2023-04-06T11:16:37.887Z,96.90
2023-04-06T11:21:48.362Z,96.40
2023-04-06T11:24:21.105Z,96.10
2023-04-06T11:26:53.552Z,95.70
2023-04-06T11:29:26.288Z,95.10
2023-04-06T11:31:59.208Z,97.70
2023-04-06T11:34:32.380Z,96.70
2023-04-06T11:37:06.320Z,94.70
2023-04-06T11:39:41.491Z,95.70
2023-04-06T11:42:12.433Z,96.80
2023-04-06T11:44:47.241Z,95.30
2023-04-06T11:47:18.210Z,93.60
2023-04-06T11:49:49.381Z,96.40
2023-04-06T11:52:22.087Z,94.40
2023-04-06T11:54:54.803Z,93.60
2023-04-06T11:57:27.046Z,93.00
2023-04-06T11:59:59.062Z,92.80
2023-04-06T12:02:29.840Z,91.00
2023-04-06T12:05:00.679Z,93.10
2023-04-06T12:07:32.444Z,94.00
2023-04-06T12:10:03.721Z,92.90
2023-04-06T12:12:34.520Z,92.60
2023-04-06T12:15:06.501Z,92.10
2023-04-06T12:17:38.190Z,92.00
2023-04-06T12:20:24.718Z,90.40
2023-04-06T12:22:43.626Z,91.20
2023-04-06T12:25:14.386Z,90.80
2023-04-06T12:27:45.064Z,91.00
2023-04-06T12:30:17.264Z,91.60
2023-04-06T12:32:50.930Z,92.30
2023-04-06T12:35:20.894Z,91.10
2023-04-06T12:37:52.101Z,88.00
2023-04-06T12:40:23.401Z,88.70
2023-04-06T12:42:54.074Z,85.60
2023-04-06T12:45:25.011Z,75.50
2023-04-06T12:47:55.911Z,66.80
2023-04-06T12:50:27.771Z,68.50
2023-04-06T12:52:58.651Z,68.60
2023-04-06T12:55:30.877Z,60.50
2023-04-06T12:58:01.728Z,62.20
2023-04-06T13:00:33.145Z,62.10
2023-04-06T13:03:03.924Z,60.90
2023-04-06T13:05:34.720Z,63.00
2023-04-06T13:08:05.616Z,61.40
2023-04-06T13:10:36.667Z,65.30
2023-04-06T13:13:07.824Z,64.70
2023-04-06T13:15:38.642Z,70.20
2023-04-06T13:18:09.725Z,65.30
2023-04-06T13:20:41.002Z,61.30
2023-04-06T13:23:12.429Z,64.50
2023-04-06T13:25:43.147Z,61.00
2023-04-06T13:28:14.909Z,59.80
2023-04-06T13:30:47.276Z,68.70
2023-04-06T13:33:17.987Z,62.50
2023-04-06T13:36:08.664Z,62.50
2023-04-06T13:38:40.202Z,63.90
2023-04-06T13:41:12.029Z,61.60
2023-04-06T13:43:42.792Z,58.90
2023-04-06T13:46:13.724Z,57.60
2023-04-06T13:48:44.738Z,63.80
2023-04-06T13:51:16.968Z,58.70
2023-04-06T13:53:47.595Z,57.70
2023-04-06T13:56:18.354Z,58.60
2023-04-06T13:58:49.060Z,58.30
2023-04-06T14:01:19.963Z,58.40
2023-04-06T14:03:52.099Z,61.30
2023-04-06T14:06:31.143Z,56.40
2023-04-06T14:08:55.112Z,56.80
2023-04-06T14:11:25.820Z,58.90
2023-04-06T14:13:58.367Z,61.80
2023-04-06T14:16:28.811Z,54.60
2023-04-06T14:19:00.024Z,56.60
2023-04-06T14:21:30.985Z,55.30
2023-04-06T14:24:02.930Z,57.40
2023-04-06T14:26:34.031Z,58.00
2023-04-06T14:29:05.213Z,57.60
2023-04-06T14:31:36.783Z,54.60
2023-04-06T14:34:07.739Z,54.90
2023-04-06T14:36:39.282Z,53.00
2023-04-06T14:39:11.562Z,51.60
2023-04-06T14:44:20.830Z,51.40
2023-04-06T14:46:51.634Z,51.20
2023-04-06T14:49:22.769Z,49.50
2023-04-06T14:51:54.255Z,53.60
2023-04-06T14:54:24.844Z,53.10
2023-04-06T14:56:55.737Z,56.30
2023-04-06T14:59:26.580Z,53.10
2023-04-06T15:01:59.346Z,51.90
2023-04-06T15:04:30.292Z,54.00
2023-04-06T15:07:01.216Z,54.60
2023-04-06T15:09:32.532Z,54.20
2023-04-06T15:12:03.402Z,55.30
2023-04-06T15:14:34.696Z,51.10
2023-04-06T15:17:05.776Z,51.50
2023-04-06T15:19:36.813Z,54.30
2023-04-06T15:22:07.588Z,52.40
2023-04-06T15:24:38.731Z,51.40
2023-04-06T15:27:09.461Z,52.70
2023-04-06T15:29:40.103Z,53.20
2023-04-06T15:32:11.093Z,51.40
2023-04-06T15:34:42.385Z,52.00
2023-04-06T15:37:13.249Z,55.90
2023-04-06T15:39:44.097Z,54.90
2023-04-06T15:42:14.779Z,52.80
2023-04-06T15:44:46.061Z,57.50
2023-04-06T15:47:17.228Z,58.40
2023-04-06T15:49:48.275Z,55.00
2023-04-06T15:52:19.055Z,52.10
2023-04-06T15:54:52.088Z,52.00
2023-04-06T15:57:22.848Z,53.10
2023-04-06T15:59:55.504Z,55.90
2023-04-06T16:02:26.568Z,54.40
2023-04-06T16:04:58.859Z,56.30
2023-04-06T16:07:29.775Z,58.80
2023-04-06T16:10:00.537Z,59.40
2023-04-06T16:12:32.975Z,62.80
2023-04-06T16:15:03.760Z,57.30
2023-04-06T16:17:34.526Z,58.60
2023-04-06T16:20:05.698Z,57.70
2023-04-06T16:22:36.826Z,56.10
2023-04-06T16:25:08.443Z,56.10
2023-04-06T16:27:39.103Z,54.20
2023-04-06T16:30:13.333Z,57.30
2023-04-06T16:32:46.228Z,55.70
2023-04-06T16:35:17.077Z,55.80
2023-04-06T16:37:47.932Z,58.90
2023-04-06T16:40:19.364Z,60.60
2023-04-06T16:42:49.981Z,59.40
2023-04-06T16:45:20.852Z,58.40
2023-04-06T16:47:51.877Z,59.60
2023-04-06T16:50:22.896Z,60.60
2023-04-06T16:52:53.879Z,58.80
2023-04-06T16:55:24.600Z,57.50
2023-04-06T16:57:58.263Z,62.50
2023-04-06T17:00:29.382Z,66.50
2023-04-06T17:03:00.290Z,69.10
2023-04-06T17:05:31.813Z,62.90
2023-04-06T17:08:02.410Z,70.40
2023-04-06T17:10:37.161Z,67.10
2023-04-06T17:13:06.374Z,69.40
2023-04-06T17:15:37.777Z,68.50
2023-04-06T17:18:08.551Z,68.10
2023-04-06T17:20:39.798Z,67.20
2023-04-06T17:23:10.633Z,69.60
2023-04-06T17:25:41.293Z,71.30
2023-04-06T17:28:11.934Z,69.30
2023-04-06T17:30:43.491Z,68.60
2023-04-06T17:33:14.170Z,67.80
2023-04-06T17:35:44.865Z,67.30
2023-04-06T17:38:15.746Z,68.10
2023-04-06T17:40:46.510Z,67.70
2023-04-06T17:43:18.051Z,68.70
2023-04-06T17:45:51.791Z,68.50
2023-04-06T17:48:22.543Z,68.80
2023-04-06T17:50:53.240Z,70.30
2023-04-06T17:53:23.841Z,69.90
2023-04-06T17:55:54.587Z,72.20
2023-04-06T17:58:25.386Z,74.00
2023-04-06T18:00:56.233Z,70.70
2023-04-06T18:03:27.472Z,69.10
2023-04-06T18:05:58.344Z,69.60
2023-04-06T18:08:28.943Z,72.70
2023-04-06T18:11:01.562Z,71.20
2023-04-06T18:13:32.471Z,73.00
2023-04-06T18:16:04.148Z,73.40
2023-04-06T18:18:35.970Z,74.10
2023-04-06T18:21:07.901Z,74.60
2023-04-06T18:23:39.509Z,72.40
2023-04-06T18:26:12.599Z,73.10
2023-04-06T18:28:44.138Z,70.60
2023-04-06T18:31:15.338Z,71.60
2023-04-06T18:33:47.050Z,71.20
2023-04-06T18:36:18.074Z,71.50
2023-04-06T18:38:50.582Z,71.90
2023-04-06T18:41:22.838Z,71.00
2023-04-06T18:43:53.945Z,74.20
2023-04-06T18:46:25.514Z,72.50
2023-04-06T18:48:56.636Z,75.60
2023-04-06T18:51:32.899Z,75.00
2023-04-06T18:54:04.395Z,74.30
2023-04-06T18:56:36.825Z,73.90
2023-04-06T18:59:07.618Z,73.30
2023-04-06T19:01:41.166Z,73.10
2023-04-06T19:04:12.592Z,74.40
2023-04-06T19:06:43.833Z,75.40
2023-04-06T19:09:14.923Z,78.00
2023-04-06T19:11:46.073Z,78.90
2023-04-06T19:14:17.141Z,79.30
2023-04-06T19:16:50.568Z,73.70
2023-04-06T19:19:23.195Z,75.70
2023-04-06T19:21:54.635Z,76.20
2023-04-06T19:24:26.266Z,77.00
2023-04-06T19:26:57.963Z,81.90
2023-04-06T19:29:28.624Z,83.90
2023-04-06T19:31:59.840Z,82.40
2023-04-06T19:34:31.246Z,86.20
2023-04-06T19:37:02.555Z,85.30
2023-04-06T19:39:33.636Z,81.20
2023-04-06T19:42:05.552Z,80.50
2023-04-06T19:44:36.192Z,80.30
2023-04-06T19:47:07.139Z,79.70
2023-04-06T19:49:38.148Z,78.20
2023-04-06T19:52:10.941Z,82.30
2023-04-06T19:54:42.084Z,77.50
2023-04-06T19:57:12.770Z,76.80
2023-04-06T19:59:43.793Z,86.00
2023-04-06T20:02:14.762Z,79.40
2023-04-06T20:04:45.575Z,80.10
2023-04-06T20:07:16.489Z,81.00
2023-04-06T20:09:47.170Z,86.80
2023-04-06T20:12:18.020Z,84.10
2023-04-06T20:14:48.670Z,85.60
2023-04-06T20:17:19.275Z,83.50
2023-04-06T20:19:52.277Z,84.10
2023-04-06T20:22:23.108Z,86.20
2023-04-06T20:24:53.692Z,90.20
2023-04-06T20:27:26.247Z,89.70
2023-04-06T20:29:56.811Z,90.80
2023-04-06T20:32:27.618Z,91.10
2023-04-06T20:34:58.286Z,91.20
2023-04-06T20:37:29.049Z,91.00
2023-04-06T20:40:01.235Z,91.20
2023-04-06T20:42:31.982Z,90.50
2023-04-06T20:45:03.450Z,90.20
2023-04-06T20:47:35.008Z,90.60
2023-04-06T20:50:06.248Z,89.50
2023-04-06T20:52:36.932Z,90.70
2023-04-06T20:55:09.116Z,88.80
2023-04-06T20:57:39.890Z,87.50
2023-04-06T21:00:13.221Z,90.30
2023-04-06T21:02:44.104Z,90.90
2023-04-06T21:05:15.237Z,93.50
2023-04-06T21:07:45.943Z,93.50
2023-04-06T21:10:16.703Z,92.90
2023-04-06T21:12:47.400Z,91.80
2023-04-06T21:15:18.539Z,91.60
2023-04-06T21:17:49.635Z,91.40
2023-04-06T21:20:21.080Z,90.80
2023-04-06T21:22:52.453Z,90.70
2023-04-06T21:25:23.505Z,92.50
2023-04-06T21:27:54.349Z,92.80
2023-04-06T21:30:25.235Z,93.30
2023-04-06T21:32:56.154Z,92.60
2023-04-06T21:35:27.405Z,92.10
2023-04-06T21:37:58.336Z,94.10
2023-04-06T21:40:29.746Z,95.80
2023-04-06T21:43:00.824Z,92.50
2023-04-06T21:45:33.050Z,94.20
2023-04-06T21:48:04.282Z,95.00
2023-04-06T21:50:37.958Z,94.40
2023-04-06T21:53:09.073Z,94.90
2023-04-06T21:55:44.733Z,94.50
2023-04-06T21:58:16.226Z,95.00
2023-04-06T22:00:47.900Z,94.20
2023-04-06T22:03:18.659Z,95.70
2023-04-06T22:05:50.029Z,94.50
2023-04-06T22:08:32.599Z,95.00
2023-04-06T22:10:53.044Z,95.10
2023-04-06T22:13:24.557Z,96.20
2023-04-06T22:15:55.157Z,96.60
2023-04-06T22:18:26.009Z,97.80
2023-04-06T22:20:56.653Z,99.90
2023-04-06T22:23:27.519Z,99.90
2023-04-06T22:25:58.898Z,99.30
2023-04-06T22:28:29.561Z,98.50
2023-04-06T22:31:00.325Z,98.40
2023-04-06T22:33:31.070Z,99.00
2023-04-06T22:36:01.816Z,98.40
2023-04-06T22:38:32.540Z,97.50
2023-04-06T22:41:03.197Z,96.50
2023-04-06T22:43:33.842Z,96.00
2023-04-06T22:46:04.933Z,96.40
2023-04-06T22:48:35.574Z,96.80
2023-04-06T22:51:06.720Z,97.30
2023-04-06T22:53:37.516Z,96.10
2023-04-06T22:56:08.414Z,96.20
2023-04-06T22:58:39.091Z,98.00
2023-04-06T23:01:09.696Z,99.90
2023-04-06T23:03:40.653Z,99.90
2023-04-06T23:06:11.718Z,99.10
2023-04-06T23:08:42.429Z,98.20
2023-04-06T23:11:13.156Z,97.90
2023-04-06T23:13:43.727Z,95.90
2023-04-06T23:16:14.383Z,95.40
2023-04-06T23:18:45.649Z,94.50
2023-04-06T23:21:16.585Z,95.40
2023-04-06T23:23:47.205Z,94.60
2023-04-06T23:26:17.816Z,96.30
2023-04-06T23:28:48.496Z,96.30
2023-04-06T23:31:19.091Z,97.20
2023-04-06T23:33:49.801Z,99.10
2023-04-06T23:36:20.504Z,99.70
2023-04-06T23:38:51.190Z,99.90
2023-04-06T23:41:22.659Z,99.40
2023-04-06T23:43:54.322Z,99.90
2023-04-06T23:46:25.326Z,99.90
2023-04-06T23:48:56.470Z,99.90
2023-04-06T23:51:27.915Z,99.70
2023-04-06T23:54:17.677Z,98.40
2023-04-06T23:56:50.305Z,98.10
2023-04-06T23:59:21.389Z,97.60
